Terminal Aerodrome Forecast
Issued by NWS

Home | Current Version | Previous Version | Text Only | Print | Product List | Glossary On
Versions: 1 2 3 4 5 6 7 8 9 10 11 12 13 14 15
660
FTUS46 KSEW 211120
TAFCLM
TAF
KCLM 211120Z 2112/2212 VRB03KT P6SM BKN060 OVC080
     FM211300 VRB03KT P6SM -RA OVC050
     FM211600 VRB03KT 6SM -RA BR BKN025 OVC040
     FM211900 VRB03KT 3SM -RA BR OVC008
     FM220200 26007KT 5SM -RA BR OVC015=

USA.gov is the U.S. government's official web portal to all federal, state and local government web resources and services.